Time;durP1;ratioP1;P1;durP2;ratioP2;P2;SDS_P1;SDS_P2;PMS_P1;PMS_P2;Temp;Humidity;BMP_temperature;BMP_pressure;BME280_temperature;BME280_humidity;BME280_pressure;Samples;Min_cycle;Max_cycle;Signal;HPM_P1;HPM_P2
2023/04/15 10:47:53;;;;;;;16.10;14.70;;;12.30;1.00;;;;;;6144843;22;2241560;-85
2023/04/15 10:50:22;;;;;;;17.17;15.77;;;12.30;1.00;;;;;;6173306;23;20275;-85
2023/04/15 10:52:54;;;;;;;17.83;16.10;;;12.30;1.00;;;;;;6197703;23;20431;-85
2023/04/15 10:55:23;;;;;;;17.50;16.00;;;12.20;1.00;;;;;;6206896;23;20408;-85
2023/04/15 10:57:54;;;;;;;19.30;17.43;;;12.20;1.00;;;;;;6206746;23;20427;-86
2023/04/15 11:00:25;;;;;;;16.70;15.33;;;12.30;1.00;;;;;;6207522;23;20411;-86
2023/04/15 11:02:55;;;;;;;15.47;14.27;;;12.30;1.00;;;;;;6205302;23;20431;-86
2023/04/15 11:05:55;;;;;;;16.60;15.10;;;12.20;1.00;;;;;;6216068;22;20411;-87
2023/04/15 11:09:01;;;;;;;15.50;14.20;;;12.10;1.00;;;;;;6212714;22;20399;-85
2023/04/15 11:12:10;;;;;;;16.43;15.17;;;12.00;1.00;;;;;;6209297;23;20426;-86
2023/04/15 11:14:42;;;;;;;17.67;16.17;;;11.90;1.00;;;;;;6212805;23;21177;-85
2023/04/15 11:17:11;;;;;;;16.17;14.77;;;11.90;1.00;;;;;;6215747;22;20419;-86
2023/04/15 11:19:39;;;;;;;15.43;14.13;;;11.90;1.00;;;;;;6205868;23;20409;-84
2023/04/15 11:22:08;;;;;;;16.90;15.30;;;11.80;1.00;;;;;;6203380;23;20484;-86
2023/04/15 11:24:36;;;;;;;16.77;15.37;;;11.70;1.00;;;;;;6204733;23;20441;-85
2023/04/15 11:27:07;;;;;;;16.17;14.80;;;11.70;1.00;;;;;;6186727;23;20536;-86
2023/04/15 11:29:34;;;;;;;15.40;14.10;;;11.80;1.00;;;;;;6206752;22;20448;-85
2023/04/15 11:32:11;;;;;;;15.73;14.23;;;11.70;1.00;;;;;;6206638;23;20377;-85
2023/04/15 11:34:47;;;;;;;14.43;13.23;;;11.70;1.00;;;;;;6208794;23;20427;-87
2023/04/15 11:37:14;;;;;;;15.70;14.07;;;11.70;1.00;;;;;;6209476;23;20426;-86
2023/04/15 11:39:44;;;;;;;15.37;14.00;;;11.70;1.00;;;;;;6181565;23;20409;-87
2023/04/15 11:42:18;;;;;;;14.97;13.60;;;11.70;1.00;;;;;;6217668;23;20490;-86
2023/04/15 11:44:49;;;;;;;16.10;14.70;;;11.70;1.00;;;;;;6204265;23;20442;-85
2023/04/15 11:47:23;;;;;;;14.80;13.60;;;11.70;1.00;;;;;;6213895;22;20414;-85
2023/04/15 11:49:55;;;;;;;14.93;13.33;;;11.70;1.00;;;;;;6209209;23;20429;-87
2023/04/15 11:52:25;;;;;;;14.80;13.53;;;11.80;1.00;;;;;;6224459;23;20453;-86
2023/04/15 11:55:07;;;;;;;15.40;13.80;;;11.80;1.00;;;;;;6238652;22;20433;-85
2023/04/15 11:57:35;;;;;;;15.30;14.03;;;11.70;1.00;;;;;;6237780;23;20389;-86
2023/04/15 12:00:04;;;;;;;15.43;14.10;;;11.80;1.00;;;;;;6233128;22;20434;-85
2023/04/15 12:02:32;;;;;;;16.17;14.80;;;11.80;1.00;;;;;;6236849;23;20506;-86
2023/04/15 12:05:11;;;;;;;14.57;13.37;;;11.80;1.00;;;;;;6220888;23;20454;-84
2023/04/15 12:07:59;;;;;;;13.93;12.73;;;11.90;1.00;;;;;;6231856;23;20417;-85
2023/04/15 12:10:27;;;;;;;15.27;13.97;;;11.90;1.00;;;;;;6221933;23;20660;-87
2023/04/15 12:12:54;;;;;;;15.00;13.77;;;11.90;1.00;;;;;;6220215;23;20547;-85
2023/04/15 12:15:32;;;;;;;14.57;13.27;;;12.00;1.00;;;;;;6230265;23;20430;-86
2023/04/15 12:18:00;;;;;;;12.53;11.53;;;12.00;1.00;;;;;;6237794;22;20411;-86
2023/04/15 12:20:30;;;;;;;14.40;13.00;;;12.10;1.00;;;;;;6221995;23;20470;-85
2023/04/15 12:23:06;;;;;;;15.53;14.23;;;12.30;1.00;;;;;;6237403;23;20418;-86
2023/04/15 12:25:36;;;;;;;14.80;13.50;;;12.40;1.00;;;;;;6237023;22;21368;-86
2023/04/15 12:28:22;;;;;;;15.80;14.40;;;12.50;1.00;;;;;;6226550;22;20442;-88
2023/04/15 12:34:12;;;;;;;13.33;12.23;;;13.00;1.00;;;;;;6065332;23;20432;-87
2023/04/15 12:36:42;;;;;;;13.43;12.30;;;13.10;1.00;;;;;;6112602;23;20418;-88
2023/04/15 12:45:43;;;;;;;20.17;18.47;;;13.00;1.00;;;;;;6131829;22;20427;-87
2023/04/15 12:48:17;;;;;;;13.70;12.60;;;12.90;1.00;;;;;;6233981;22;20439;-87
2023/04/15 12:50:49;;;;;;;11.37;10.47;;;13.00;1.00;;;;;;6215462;22;20414;-86
2023/04/15 12:53:25;;;;;;;14.67;13.47;;;12.90;1.00;;;;;;6231576;22;20423;-88
2023/04/15 12:56:00;;;;;;;13.57;12.37;;;12.90;1.00;;;;;;6241169;22;20482;-88
2023/04/15 12:58:31;;;;;;;11.43;10.43;;;12.90;1.00;;;;;;6234562;22;20432;-86
2023/04/15 13:04:02;;;;;;;11.10;10.20;;;12.70;1.00;;;;;;6216020;22;20424;-85
2023/04/15 13:06:32;;;;;;;11.03;10.03;;;12.70;1.00;;;;;;6240050;22;20446;-86
2023/04/15 13:09:03;;;;;;;10.47;9.57;;;12.70;1.00;;;;;;6224229;22;20425;-87
2023/04/15 13:11:36;;;;;;;10.50;9.70;;;12.70;1.00;;;;;;6233952;22;20947;-86
2023/04/15 13:14:05;;;;;;;11.60;10.60;;;12.70;1.00;;;;;;6223876;22;20503;-88
2023/04/15 13:16:35;;;;;;;10.97;10.07;;;12.80;1.00;;;;;;6223029;22;20455;-89
2023/04/15 13:19:04;;;;;;;9.77;9.07;;;12.90;1.00;;;;;;6227135;22;20399;-86
2023/04/15 13:21:33;;;;;;;10.30;9.40;;;12.80;1.00;;;;;;6226373;22;20512;-86
2023/04/15 13:24:00;;;;;;;12.47;11.27;;;12.80;1.00;;;;;;6230778;22;20389;-86
2023/04/15 13:26:32;;;;;;;10.63;9.73;;;12.90;1.00;;;;;;6227012;22;20421;-86
2023/04/15 13:29:03;;;;;;;10.33;9.53;;;13.00;1.00;;;;;;6224948;22;20487;-89
2023/04/15 13:31:30;;;;;;;11.23;10.20;;;13.10;1.00;;;;;;6227161;22;20825;-87
2023/04/15 13:33:58;;;;;;;10.80;9.80;;;13.30;1.00;;;;;;6229359;22;20410;-87
2023/04/15 13:36:25;;;;;;;10.60;9.73;;;13.30;1.00;;;;;;6224000;22;20435;-86
2023/04/15 13:38:53;;;;;;;9.37;8.67;;;13.30;1.00;;;;;;6240076;22;20550;-91
2023/04/15 13:41:23;;;;;;;9.47;8.67;;;13.40;1.00;;;;;;6227859;22;20404;-89
2023/04/15 13:44:03;;;;;;;9.83;9.00;;;13.40;1.00;;;;;;6229005;22;20401;-87
2023/04/15 13:46:30;;;;;;;8.73;7.93;;;13.40;1.00;;;;;;6227155;22;20448;-85
2023/04/15 13:48:58;;;;;;;8.87;8.17;;;13.30;1.00;;;;;;6225774;22;21264;-85
2023/04/15 13:51:25;;;;;;;8.27;7.67;;;13.10;1.00;;;;;;6231328;22;21245;-86
2023/04/15 13:53:53;;;;;;;7.50;6.90;;;12.90;1.00;;;;;;6225667;22;20420;-88
2023/04/15 13:56:20;;;;;;;8.13;7.53;;;12.70;1.00;;;;;;6227326;22;20415;-86
2023/04/15 13:58:48;;;;;;;11.17;10.17;;;12.80;1.00;;;;;;6232060;22;20412;-86
2023/04/15 14:01:18;;;;;;;7.80;7.20;;;12.70;1.00;;;;;;6229443;22;20419;-85
2023/04/15 14:03:48;;;;;;;8.00;7.40;;;12.60;1.00;;;;;;6229849;22;20438;-89
2023/04/15 14:06:16;;;;;;;10.17;9.37;;;12.50;1.00;;;;;;6230482;22;20487;-88
2023/04/15 14:08:43;;;;;;;7.87;7.27;;;12.50;1.00;;;;;;6228529;22;20952;-88
2023/04/15 14:11:12;;;;;;;8.40;7.80;;;12.50;1.00;;;;;;6230073;22;20420;-89
2023/04/15 14:13:39;;;;;;;9.00;8.30;;;12.50;1.00;;;;;;6227865;22;20424;-88
2023/04/15 14:16:08;;;;;;;8.93;8.23;;;12.50;1.00;;;;;;6235421;22;20422;-87
2023/04/15 14:18:39;;;;;;;9.17;8.47;;;12.40;1.00;;;;;;6230705;22;20403;-89
2023/04/15 14:21:06;;;;;;;9.60;8.80;;;12.40;1.00;;;;;;6227155;22;20407;-88
2023/04/15 14:23:34;;;;;;;9.37;8.67;;;12.50;1.00;;;;;;6231121;22;20474;-88
2023/04/15 14:26:03;;;;;;;9.03;8.33;;;12.50;1.00;;;;;;6228498;22;20457;-88
2023/04/15 14:28:37;;;;;;;11.37;9.50;;;12.50;1.00;;;;;;6229866;22;20407;-89
2023/04/15 14:31:05;;;;;;;9.00;8.23;;;12.50;1.00;;;;;;6228666;22;20474;-87
2023/04/15 14:33:32;;;;;;;10.43;9.63;;;12.40;1.00;;;;;;6229579;22;20431;-90
2023/04/15 14:36:03;;;;;;;9.47;8.60;;;12.50;1.00;;;;;;6228556;22;20409;-88
2023/04/15 14:38:37;;;;;;;9.80;8.90;;;12.50;1.00;;;;;;6230593;22;20418;-89
2023/04/15 14:41:05;;;;;;;9.27;8.47;;;12.50;1.00;;;;;;6229938;22;20408;-88
2023/04/15 14:43:32;;;;;;;9.50;8.60;;;12.50;1.00;;;;;;6229640;23;20558;-87
2023/04/15 14:46:02;;;;;;;8.60;7.90;;;12.40;1.00;;;;;;6202671;22;20365;-88
2023/04/15 14:48:32;;;;;;;10.73;9.93;;;12.30;1.00;;;;;;6234266;22;20431;-89
2023/04/15 14:51:02;;;;;;;10.27;9.37;;;12.30;1.00;;;;;;6227275;22;20421;-87
2023/04/15 14:53:29;;;;;;;10.83;9.83;;;12.40;1.00;;;;;;6229174;22;20443;-89
2023/04/15 14:55:57;;;;;;;10.37;9.47;;;12.30;1.00;;;;;;6228926;22;20379;-88
2023/04/15 14:58:25;;;;;;;9.30;8.60;;;12.30;1.00;;;;;;6234867;22;20435;-90
2023/04/15 15:00:53;;;;;;;10.50;9.60;;;12.30;1.00;;;;;;6205973;23;20415;-89
2023/04/15 15:03:23;;;;;;;10.40;9.60;;;12.30;1.00;;;;;;6233413;22;20403;-88
2023/04/15 15:05:50;;;;;;;10.70;9.77;;;12.30;1.00;;;;;;6232192;22;20477;-88
2023/04/15 15:08:21;;;;;;;10.10;9.30;;;12.30;1.00;;;;;;6229461;22;20522;-88
2023/04/15 15:10:52;;;;;;;10.80;9.83;;;12.30;1.00;;;;;;6232979;22;20499;-86
2023/04/15 15:13:19;;;;;;;10.07;9.27;;;12.40;1.00;;;;;;6229199;22;21202;-88
2023/04/15 15:15:48;;;;;;;10.20;9.40;;;12.40;1.00;;;;;;6216279;22;20518;-88
2023/04/15 15:18:18;;;;;;;8.90;8.20;;;12.40;1.00;;;;;;6229912;22;20413;-90
2023/04/15 15:20:46;;;;;;;9.73;8.93;;;12.30;1.00;;;;;;6231143;22;20450;-88
2023/04/15 15:23:14;;;;;;;9.13;8.43;;;12.20;1.00;;;;;;6204533;22;20419;-89
2023/04/15 15:25:42;;;;;;;10.33;9.40;;;12.20;1.00;;;;;;6231264;23;20428;-89
2023/04/15 15:28:11;;;;;;;10.60;9.63;;;12.30;1.00;;;;;;6231052;22;20411;-88
2023/04/15 15:30:39;;;;;;;9.97;9.17;;;12.40;1.00;;;;;;6202253;23;20419;-84
2023/04/15 15:33:06;;;;;;;9.33;8.53;;;12.40;1.00;;;;;;6228031;23;20411;-88
2023/04/15 15:35:34;;;;;;;9.20;8.50;;;12.30;1.00;;;;;;6231430;22;20445;-88
2023/04/15 15:38:02;;;;;;;9.20;8.50;;;12.40;1.00;;;;;;6230341;22;20478;-87
2023/04/15 15:40:29;;;;;;;8.63;7.93;;;12.50;1.00;;;;;;6229467;22;20420;-88
2023/04/15 15:42:59;;;;;;;8.20;7.60;;;12.60;1.00;;;;;;6203883;23;20458;-88
2023/04/15 15:45:26;;;;;;;8.50;7.83;;;12.70;1.00;;;;;;6228094;23;20424;-89
2023/04/15 15:47:56;;;;;;;9.33;8.50;;;12.60;1.00;;;;;;6232480;22;20435;-90
2023/04/15 15:50:24;;;;;;;8.90;8.20;;;12.60;1.00;;;;;;6231456;22;20392;-89
2023/04/15 15:52:51;;;;;;;13.07;11.97;;;12.70;1.00;;;;;;6230812;22;20392;-91
2023/04/15 15:55:19;;;;;;;8.60;7.90;;;12.80;1.00;;;;;;6231047;22;20573;-90
2023/04/15 15:57:47;;;;;;;7.67;6.77;;;12.70;1.00;;;;;;6231945;23;20415;-91
2023/04/15 16:00:22;;;;;;;9.00;8.40;;;12.80;1.00;;;;;;6232399;22;20393;-89
2023/04/15 16:02:52;;;;;;;6.80;6.20;;;12.70;1.00;;;;;;6216711;22;20518;-91
2023/04/15 16:05:20;;;;;;;8.63;7.87;;;12.70;1.00;;;;;;6228828;22;20427;-90
2023/04/15 16:07:48;;;;;;;8.00;7.30;;;12.70;1.00;;;;;;6231557;22;20439;-89
2023/04/15 16:10:15;;;;;;;8.07;7.37;;;12.70;1.00;;;;;;6228451;22;20638;-89
2023/04/15 16:12:44;;;;;;;7.53;6.80;;;12.60;1.00;;;;;;6228497;22;21141;-91
2023/04/15 16:15:13;;;;;;;7.40;6.87;;;12.70;1.00;;;;;;6225921;22;20459;-89
2023/04/15 16:17:45;;;;;;;8.17;7.57;;;12.70;1.00;;;;;;6227179;22;20395;-88
2023/04/15 16:20:12;;;;;;;7.87;7.27;;;12.60;1.00;;;;;;6228743;22;20428;-88
2023/04/15 16:22:40;;;;;;;10.20;9.40;;;12.60;1.00;;;;;;6227034;22;20498;-90
2023/04/15 16:25:08;;;;;;;9.40;8.70;;;12.60;1.00;;;;;;6227913;22;20442;-88
2023/04/15 16:27:36;;;;;;;8.47;7.57;;;12.60;1.00;;;;;;6229587;23;20453;-87
2023/04/15 16:30:04;;;;;;;8.80;8.10;;;12.60;1.00;;;;;;6232558;22;20460;-87
2023/04/15 16:32:33;;;;;;;6.93;6.43;;;12.60;1.00;;;;;;6224757;22;21099;-88
2023/04/15 16:35:07;;;;;;;8.20;7.30;;;12.60;1.00;;;;;;6230444;22;20539;-90
2023/04/15 16:37:35;;;;;;;8.10;7.40;;;12.60;1.00;;;;;;6232134;23;20437;-86
2023/04/15 16:40:02;;;;;;;9.03;8.23;;;12.60;1.00;;;;;;6234309;22;20401;-88
2023/04/15 16:42:29;;;;;;;7.43;6.93;;;12.70;1.00;;;;;;6234186;23;20451;-88
2023/04/15 16:44:59;;;;;;;8.63;7.93;;;12.70;1.00;;;;;;6204986;23;20442;-86
2023/04/15 16:47:26;;;;;;;8.37;7.57;;;12.60;1.00;;;;;;6234298;22;20396;-87
2023/04/15 16:49:53;;;;;;;8.00;7.40;;;12.50;1.00;;;;;;6232369;22;20386;-89
2023/04/15 16:52:23;;;;;;;7.97;7.37;;;12.50;1.00;;;;;;6233806;23;20446;-88
2023/04/15 16:54:52;;;;;;;7.63;7.07;;;12.50;1.00;;;;;;6231513;22;20420;-89
2023/04/15 16:57:20;;;;;;;7.70;7.10;;;12.50;1.00;;;;;;6232770;22;20444;-90
2023/04/15 16:59:47;;;;;;;7.90;7.20;;;12.60;1.00;;;;;;6230474;23;20405;-88
2023/04/15 17:02:14;;;;;;;20.30;18.27;;;12.60;1.00;;;;;;6232275;23;20432;-88
2023/04/15 17:04:42;;;;;;;8.70;7.67;;;12.60;1.00;;;;;;6229429;23;21196;-87
2023/04/15 17:07:12;;;;;;;9.93;9.13;;;12.60;1.00;;;;;;6227520;23;20960;-87
2023/04/15 17:09:42;;;;;;;8.30;7.70;;;12.60;1.00;;;;;;6231886;22;20428;-87
2023/04/15 17:12:09;;;;;;;8.27;7.67;;;12.60;1.00;;;;;;6233050;23;20926;-88
2023/04/15 17:14:37;;;;;;;9.80;9.00;;;12.70;1.00;;;;;;6203539;23;20425;-88
2023/04/15 17:17:04;;;;;;;8.13;7.43;;;12.70;1.00;;;;;;6214455;22;20468;-89
2023/04/15 17:19:32;;;;;;;7.03;6.53;;;12.70;1.00;;;;;;6216807;22;20424;-89
2023/04/15 17:22:01;;;;;;;8.07;7.33;;;12.60;1.00;;;;;;6228472;22;20491;-89
2023/04/15 17:24:30;;;;;;;9.40;8.60;;;12.60;1.00;;;;;;6233049;23;20392;-89
2023/04/15 17:27:00;;;;;;;9.30;8.53;;;12.60;1.00;;;;;;6231295;23;20477;-90
2023/04/15 17:29:27;;;;;;;9.63;8.87;;;12.60;1.00;;;;;;6233617;22;20447;-88
2023/04/15 17:31:55;;;;;;;9.00;8.20;;;12.60;1.00;;;;;;6229587;22;20431;-90
2023/04/15 17:34:24;;;;;;;9.40;8.67;;;12.60;1.00;;;;;;6229464;23;20429;-88
2023/04/15 17:36:53;;;;;;;9.43;8.60;;;12.50;1.00;;;;;;6232341;22;20428;-87
2023/04/15 17:39:21;;;;;;;9.10;8.40;;;12.50;1.00;;;;;;6204319;23;20503;-89
2023/04/15 17:41:48;;;;;;;8.63;7.80;;;12.50;1.00;;;;;;6234523;22;20430;-89
2023/04/15 17:44:29;;;;;;;9.70;8.90;;;12.50;1.00;;;;;;6235448;22;20381;-89
2023/04/15 17:46:57;;;;;;;8.50;7.80;;;12.50;1.00;;;;;;6231254;23;20384;-89
2023/04/15 17:49:25;;;;;;;8.80;8.10;;;12.50;1.00;;;;;;6237175;22;20464;-89
2023/04/15 17:51:53;;;;;;;8.57;7.87;;;12.40;1.00;;;;;;6229550;23;20515;-88
2023/04/15 17:54:23;;;;;;;9.40;8.60;;;12.40;1.00;;;;;;6232930;22;20385;-87
2023/04/15 17:56:51;;;;;;;9.03;8.17;;;12.40;1.00;;;;;;6233613;23;21087;-90
2023/04/15 17:59:19;;;;;;;9.17;8.47;;;12.40;1.00;;;;;;6218096;23;20446;-88
2023/04/15 18:01:46;;;;;;;8.20;7.60;;;12.30;1.00;;;;;;6231423;23;20403;-89
2023/04/15 18:04:15;;;;;;;7.93;7.33;;;12.30;1.00;;;;;;6204226;23;20436;-90
2023/04/15 18:06:42;;;;;;;8.20;7.60;;;12.30;1.00;;;;;;6232343;22;20428;-90
2023/04/15 18:09:10;;;;;;;7.73;7.13;;;12.20;1.00;;;;;;6230276;23;20396;-87
2023/04/15 18:11:38;;;;;;;8.70;7.90;;;12.20;1.00;;;;;;6234896;22;20416;-89
2023/04/15 18:14:07;;;;;;;8.50;7.83;;;12.20;1.00;;;;;;6232974;22;20506;-91
2023/04/15 18:16:38;;;;;;;8.77;8.07;;;12.20;1.00;;;;;;6237962;23;20428;-90
2023/04/15 18:19:06;;;;;;;8.30;7.50;;;12.20;1.00;;;;;;6221821;22;20392;-89
2023/04/15 18:21:34;;;;;;;8.60;7.90;;;12.20;1.00;;;;;;6235984;22;20404;-89
2023/04/15 18:24:01;;;;;;;8.60;7.90;;;12.20;1.00;;;;;;6234371;22;20400;-87
2023/04/15 18:26:31;;;;;;;8.73;8.03;;;12.20;1.00;;;;;;6244515;22;20407;-88
2023/04/15 18:28:59;;;;;;;8.20;7.60;;;12.20;1.00;;;;;;6238551;22;20416;-88
2023/04/15 18:31:28;;;;;;;8.47;7.87;;;12.20;1.00;;;;;;6239773;22;20431;-88
2023/04/15 18:37:28;;;;;;;7.87;7.27;;;12.20;1.00;;;;;;6283681;22;20402;-90
2023/04/15 18:40:03;;;;;;;7.50;6.90;;;12.20;1.00;;;;;;6295040;22;20441;-87
2023/04/15 18:42:31;;;;;;;7.03;6.50;;;12.20;1.00;;;;;;6300949;22;20406;-88
2023/04/15 18:45:01;;;;;;;8.33;7.63;;;12.10;1.00;;;;;;6295546;22;20385;-87
2023/04/15 18:47:29;;;;;;;7.63;7.03;;;12.10;1.00;;;;;;6299165;22;20389;-87
2023/04/15 18:49:58;;;;;;;6.80;6.20;;;12.10;1.00;;;;;;6300076;22;21128;-87
2023/04/15 18:52:33;;;;;;;7.30;6.70;;;12.00;1.00;;;;;;6302215;22;20433;-88
2023/04/15 18:55:03;;;;;;;6.63;5.93;;;12.00;1.00;;;;;;6284990;22;20418;-86
2023/04/15 18:57:33;;;;;;;6.87;6.33;;;12.00;1.00;;;;;;6284237;22;20488;-88
2023/04/15 19:02:44;;;;;;;7.00;6.40;;;12.00;1.00;;;;;;6296504;22;20425;-88
2023/04/15 19:05:12;;;;;;;6.50;5.90;;;12.00;1.00;;;;;;6299920;22;20433;-88
2023/04/15 19:07:44;;;;;;;7.40;6.67;;;12.00;1.00;;;;;;6296091;22;21079;-87
2023/04/15 19:10:13;;;;;;;7.50;6.80;;;12.00;1.00;;;;;;6282563;22;20440;-89
2023/04/15 19:12:41;;;;;;;7.40;6.73;;;12.00;1.00;;;;;;6294902;22;21117;-88
2023/04/15 19:15:09;;;;;;;7.37;6.63;;;11.90;1.00;;;;;;6294162;22;20457;-87
2023/04/15 19:17:39;;;;;;;8.97;8.17;;;11.90;1.00;;;;;;6294050;22;20437;-88
2023/04/15 19:20:11;;;;;;;8.60;7.80;;;11.90;1.00;;;;;;6296207;22;20436;-87
2023/04/15 19:22:42;;;;;;;8.27;7.57;;;11.90;1.00;;;;;;6296089;22;20430;-87
2023/04/15 19:25:10;;;;;;;9.40;8.70;;;11.90;1.00;;;;;;6297591;22;20506;-88
2023/04/15 19:27:39;;;;;;;13.50;12.17;;;11.90;1.00;;;;;;6299410;22;21317;-86
2023/04/15 19:30:07;;;;;;;11.33;10.33;;;12.00;1.00;;;;;;6295376;22;20402;-87
2023/04/15 19:32:36;;;;;;;10.47;9.57;;;12.00;1.00;;;;;;6295030;22;20646;-85
2023/04/15 19:35:03;;;;;;;10.53;9.63;;;12.00;1.00;;;;;;6296487;22;20403;-87
2023/04/15 19:37:32;;;;;;;10.73;9.90;;;12.00;1.00;;;;;;6299876;22;20848;-87
2023/04/15 19:40:06;;;;;;;11.50;10.50;;;12.00;1.00;;;;;;6297388;22;20406;-88
2023/04/15 19:42:33;;;;;;;33.33;29.03;;;12.10;1.00;;;;;;6298251;22;20397;-87
2023/04/15 19:45:10;;;;;;;12.97;11.70;;;12.00;1.00;;;;;;6295450;22;20378;-86
2023/04/15 19:47:39;;;;;;;13.20;12.10;;;12.00;1.00;;;;;;6299507;22;20425;-87
2023/04/15 19:50:10;;;;;;;13.30;12.10;;;11.90;1.00;;;;;;6297335;22;20811;-88
2023/04/15 19:52:39;;;;;;;13.90;12.80;;;11.90;1.00;;;;;;6294097;22;20401;-86
2023/04/15 19:55:13;;;;;;;14.50;13.37;;;11.80;1.00;;;;;;6296269;22;20429;-87
2023/04/15 19:57:42;;;;;;;14.57;13.30;;;11.80;1.00;;;;;;6287567;22;20409;-87
2023/04/15 20:00:12;;;;;;;15.00;13.80;;;11.80;1.00;;;;;;6282667;22;20529;-90
2023/04/15 20:02:40;;;;;;;15.17;13.90;;;11.70;1.00;;;;;;6291439;22;20714;-87
2023/04/15 20:05:09;;;;;;;14.73;13.43;;;11.70;1.00;;;;;;6291990;22;21057;-89
2023/04/15 20:07:41;;;;;;;14.60;13.40;;;11.70;1.00;;;;;;6294896;22;20435;-88
2023/04/15 20:10:11;;;;;;;16.10;14.60;;;11.70;1.00;;;;;;6299968;22;20450;-88
2023/04/15 20:12:40;;;;;;;16.30;14.77;;;11.70;1.00;;;;;;6296557;22;20394;-85
2023/04/15 20:15:09;;;;;;;17.10;15.50;;;11.80;1.00;;;;;;6292102;22;21120;-90
2023/04/15 20:17:40;;;;;;;15.07;13.67;;;11.70;1.00;;;;;;6290652;22;20521;-88
2023/04/15 20:20:09;;;;;;;16.57;15.00;;;11.70;1.00;;;;;;6293046;22;20436;-88
2023/04/15 20:22:37;;;;;;;15.13;13.83;;;11.70;1.00;;;;;;6291103;22;20417;-88
2023/04/15 20:25:08;;;;;;;16.60;15.00;;;11.70;1.00;;;;;;6294129;22;20390;-88
2023/04/15 20:27:36;;;;;;;16.73;15.23;;;11.70;1.00;;;;;;6292999;22;20397;-88
2023/04/15 20:30:04;;;;;;;17.10;15.60;;;11.70;1.00;;;;;;6293506;22;20477;-87
2023/04/15 20:32:34;;;;;;;17.07;15.33;;;11.60;1.00;;;;;;6292796;22;20484;-90
2023/04/15 20:35:01;;;;;;;17.10;15.53;;;11.60;1.00;;;;;;6292183;22;20365;-89
2023/04/15 20:37:31;;;;;;;16.43;15.03;;;11.60;1.00;;;;;;6291866;22;20406;-89
2023/04/15 20:39:59;;;;;;;17.27;15.67;;;11.60;1.00;;;;;;6294753;22;20453;-89
2023/04/15 20:42:27;;;;;;;17.10;15.10;;;11.60;1.00;;;;;;6275463;22;20479;-88
2023/04/15 20:44:56;;;;;;;16.83;15.33;;;11.60;1.00;;;;;;6293801;22;20402;-85
2023/04/15 20:47:24;;;;;;;17.73;16.23;;;11.70;1.00;;;;;;6297817;22;20437;-87
2023/04/15 20:49:51;;;;;;;17.17;15.50;;;11.70;1.00;;;;;;6297508;22;20436;-87
2023/04/15 20:52:22;;;;;;;17.50;16.00;;;11.70;1.00;;;;;;6283962;22;20405;-87
2023/04/15 20:54:58;;;;;;;18.27;16.67;;;11.60;1.00;;;;;;6272868;22;21178;-87
2023/04/15 20:57:29;;;;;;;18.20;16.60;;;11.60;1.00;;;;;;6296179;22;20463;-88
2023/04/15 20:59:59;;;;;;;17.80;16.30;;;11.60;1.00;;;;;;6297908;22;20455;-89
2023/04/15 21:02:30;;;;;;;16.97;15.47;;;11.60;1.00;;;;;;6294417;22;20457;-88
2023/04/15 21:05:03;;;;;;;16.47;14.97;;;11.60;1.00;;;;;;6294841;22;21375;-87
2023/04/15 21:07:30;;;;;;;18.67;16.87;;;11.60;1.00;;;;;;6292897;22;21240;-87
2023/04/15 21:10:02;;;;;;;18.57;16.87;;;11.70;1.00;;;;;;6280159;22;20413;-88
2023/04/15 21:12:32;;;;;;;18.40;16.80;;;11.70;1.00;;;;;;6297778;22;20428;-89
2023/04/15 21:15:05;;;;;;;17.37;15.63;;;11.80;1.00;;;;;;6283223;22;20407;-87
2023/04/15 21:17:34;;;;;;;19.00;17.30;;;11.80;1.00;;;;;;6297441;22;20441;-88
2023/04/15 21:20:03;;;;;;;18.17;16.53;;;11.80;1.00;;;;;;6295469;22;20410;-89
2023/04/15 21:22:34;;;;;;;19.40;17.50;;;11.80;1.00;;;;;;6291691;22;20433;-87
2023/04/15 21:25:04;;;;;;;18.93;17.23;;;11.70;1.00;;;;;;6290408;22;20404;-87
2023/04/15 21:27:34;;;;;;;19.70;17.80;;;11.80;1.00;;;;;;6295993;22;20465;-87
2023/04/15 21:30:14;;;;;;;18.97;17.00;;;11.70;1.00;;;;;;6299373;22;20384;-87
2023/04/15 21:32:43;;;;;;;18.10;16.40;;;11.70;1.00;;;;;;6295586;22;20503;-86
2023/04/15 21:35:16;;;;;;;19.00;17.30;;;11.70;1.00;;;;;;6281933;22;20408;-88
2023/04/15 21:37:46;;;;;;;19.90;18.00;;;11.70;1.00;;;;;;6289349;22;20407;-87
2023/04/15 21:40:15;;;;;;;20.07;18.17;;;11.70;1.00;;;;;;6273071;22;20674;-88
2023/04/15 21:42:43;;;;;;;19.63;17.93;;;11.70;1.00;;;;;;6272880;22;20429;-87
2023/04/15 21:45:13;;;;;;;19.27;17.57;;;11.80;1.00;;;;;;6259268;22;21104;-87
2023/04/15 21:47:42;;;;;;;18.47;16.87;;;11.90;1.00;;;;;;6306668;22;20460;-88
2023/04/15 21:50:13;;;;;;;19.00;17.20;;;11.90;1.00;;;;;;6288229;22;20979;-88
2023/04/15 21:52:40;;;;;;;19.77;18.00;;;11.80;1.00;;;;;;6289782;22;20397;-88
2023/04/15 21:55:09;;;;;;;23.57;21.27;;;11.80;1.00;;;;;;6268205;22;20974;-88
2023/04/15 21:57:38;;;;;;;19.53;17.70;;;11.80;1.00;;;;;;6287228;22;20939;-88
2023/04/15 22:00:07;;;;;;;19.03;17.23;;;11.80;1.00;;;;;;6274953;22;20940;-88
2023/04/15 22:02:37;;;;;;;19.13;17.43;;;11.80;1.00;;;;;;6290447;22;20978;-87
2023/04/15 22:05:06;;;;;;;19.10;17.40;;;11.80;1.00;;;;;;6275052;22;20386;-87
2023/04/15 22:07:35;;;;;;;20.43;18.57;;;11.80;1.00;;;;;;6290907;22;20432;-86
2023/04/15 22:10:02;;;;;;;18.30;16.70;;;11.80;1.00;;;;;;6288145;22;20425;-87
2023/04/15 22:12:32;;;;;;;20.10;18.00;;;11.70;1.00;;;;;;6290546;22;20479;-86
2023/04/15 22:14:59;;;;;;;19.63;17.73;;;11.70;1.00;;;;;;6267218;22;20384;-87
2023/04/15 22:17:29;;;;;;;18.90;17.10;;;11.70;1.00;;;;;;6285619;22;20444;-86
2023/04/15 22:19:58;;;;;;;18.60;16.87;;;11.80;1.00;;;;;;6276236;22;21116;-86
2023/04/15 22:22:26;;;;;;;20.10;18.10;;;11.80;1.00;;;;;;6292870;22;20451;-86
2023/04/15 22:24:53;;;;;;;16.80;15.30;;;11.70;1.00;;;;;;6290960;22;20450;-86
2023/04/15 22:27:20;;;;;;;17.67;16.13;;;11.80;1.00;;;;;;6291813;22;20430;-87
2023/04/15 22:29:48;;;;;;;18.70;16.80;;;11.80;1.00;;;;;;6290704;22;20426;-87
2023/04/15 22:32:14;;;;;;;27.70;24.97;;;11.80;1.00;;;;;;6284831;22;20736;-83
2023/04/15 22:34:41;;;;;;;18.83;17.13;;;11.70;1.00;;;;;;6277861;22;20481;-80
2023/04/15 22:37:10;;;;;;;19.17;17.27;;;11.70;1.00;;;;;;6285589;22;20439;-82
2023/04/15 22:39:37;;;;;;;18.30;16.70;;;11.80;1.00;;;;;;6280210;22;20463;-80
2023/04/15 22:42:04;;;;;;;19.07;17.27;;;11.80;1.00;;;;;;6279592;22;20452;-81
2023/04/15 22:44:31;;;;;;;19.00;17.30;;;11.80;1.00;;;;;;6275367;22;20434;-80
2023/04/15 22:46:58;;;;;;;18.47;16.67;;;11.80;1.00;;;;;;6279654;22;20428;-79
2023/04/15 22:49:25;;;;;;;18.97;17.10;;;11.80;1.00;;;;;;6278745;22;20501;-80
2023/04/15 22:51:52;;;;;;;19.00;17.20;;;11.80;1.00;;;;;;6278689;22;20437;-79
2023/04/15 22:54:20;;;;;;;20.10;18.30;;;11.80;1.00;;;;;;6278493;22;20450;-80
2023/04/15 22:56:49;;;;;;;18.97;17.00;;;11.80;1.00;;;;;;6278802;22;20434;-80
2023/04/15 22:59:16;;;;;;;19.73;17.87;;;11.80;1.00;;;;;;6279979;22;20414;-79
2023/04/15 23:01:43;;;;;;;20.47;18.53;;;11.80;1.00;;;;;;6282615;22;20415;-80
2023/04/15 23:04:11;;;;;;;21.60;19.30;;;11.80;1.00;;;;;;6280744;22;20840;-80
2023/04/15 23:06:38;;;;;;;20.37;18.50;;;11.70;1.00;;;;;;6282979;22;20455;-78
2023/04/15 23:09:05;;;;;;;21.30;19.30;;;11.80;1.00;;;;;;6285180;22;20771;-80
2023/04/15 23:11:34;;;;;;;19.47;17.57;;;11.70;1.00;;;;;;6285621;22;20418;-80
2023/04/15 23:14:02;;;;;;;22.53;20.43;;;11.70;1.00;;;;;;6283958;22;20405;-79
2023/04/15 23:16:29;;;;;;;18.77;17.07;;;11.80;1.00;;;;;;6285059;22;20912;-80
2023/04/15 23:18:56;;;;;;;20.43;18.43;;;11.80;1.00;;;;;;6284519;22;20409;-80
2023/04/15 23:21:23;;;;;;;19.73;17.93;;;11.70;1.00;;;;;;6282847;22;20422;-79
2023/04/15 23:23:52;;;;;;;20.00;18.03;;;11.80;1.00;;;;;;6277232;22;20475;-80
2023/04/15 23:26:19;;;;;;;19.20;17.23;;;11.80;1.00;;;;;;6287582;22;20427;-80
2023/04/15 23:28:48;;;;;;;19.10;17.30;;;11.70;1.00;;;;;;6285596;22;20424;-80
2023/04/15 23:31:15;;;;;;;20.33;17.90;;;11.60;1.00;;;;;;6289866;22;21082;-80
2023/04/15 23:33:42;;;;;;;18.93;17.20;;;11.60;1.00;;;;;;6288045;22;20459;-80
2023/04/15 23:36:09;;;;;;;21.40;19.40;;;11.60;1.00;;;;;;6287594;22;20462;-80
2023/04/15 23:38:38;;;;;;;20.50;18.40;;;11.50;1.00;;;;;;6286870;22;20609;-78
2023/04/15 23:41:08;;;;;;;19.90;18.07;;;11.60;1.00;;;;;;6285976;22;20492;-80
2023/04/15 23:43:35;;;;;;;19.70;17.60;;;11.50;1.00;;;;;;6290205;22;20421;-80
2023/04/15 23:46:05;;;;;;;19.53;17.53;;;11.50;1.00;;;;;;6285439;22;20421;-80
2023/04/15 23:48:32;;;;;;;18.73;16.93;;;11.50;1.00;;;;;;6289135;22;20399;-81
2023/04/15 23:51:00;;;;;;;19.30;17.50;;;11.50;1.00;;;;;;6287549;22;20393;-80
2023/04/15 23:53:28;;;;;;;21.53;19.23;;;11.50;1.00;;;;;;6288510;22;20502;-80
2023/04/15 23:55:56;;;;;;;19.50;17.80;;;11.60;1.00;;;;;;6284685;22;20429;-80
2023/04/15 23:58:23;;;;;;;19.13;17.43;;;11.60;1.00;;;;;;6289096;22;20425;-81
